sensor_id;sensor_type;location;lat;lon;timestamp;temperature;humidity
30648;DHT22;17683;53.360;9.736;2024-03-23T00:53:25;7.20;99.90
30648;DHT22;17683;53.360;9.736;2024-03-23T00:55:51;7.20;99.90
30648;DHT22;17683;53.360;9.736;2024-03-23T00:58:17;7.20;99.90
30648;DHT22;17683;53.360;9.736;2024-03-23T01:00:42;7.10;99.90
30648;DHT22;17683;53.360;9.736;2024-03-23T01:03:08;7.10;99.90
30648;DHT22;17683;53.360;9.736;2024-03-23T01:05:34;7.10;99.90
30648;DHT22;17683;53.360;9.736;2024-03-23T01:08:00;7.10;99.90
30648;DHT22;17683;53.360;9.736;2024-03-23T01:10:25;7.10;99.90
30648;DHT22;17683;53.360;9.736;2024-03-23T01:12:51;7.10;99.90
30648;DHT22;17683;53.360;9.736;2024-03-23T01:15:17;7.10;99.90
30648;DHT22;17683;53.360;9.736;2024-03-23T01:17:42;7.00;99.90
30648;DHT22;17683;53.360;9.736;2024-03-23T01:20:08;7.00;99.90
30648;DHT22;17683;53.360;9.736;2024-03-23T01:22:34;7.00;99.90
30648;DHT22;17683;53.360;9.736;2024-03-23T01:24:59;7.00;99.90
30648;DHT22;17683;53.360;9.736;2024-03-23T01:27:25;7.00;99.90
30648;DHT22;17683;53.360;9.736;2024-03-23T01:29:51;7.00;99.90
30648;DHT22;17683;53.360;9.736;2024-03-23T01:32:18;6.90;99.90
30648;DHT22;17683;53.360;9.736;2024-03-23T01:34:44;6.90;99.90
30648;DHT22;17683;53.360;9.736;2024-03-23T01:37:10;6.90;99.90
30648;DHT22;17683;53.360;9.736;2024-03-23T01:39:35;6.90;99.90
30648;DHT22;17683;53.360;9.736;2024-03-23T01:42:01;6.90;99.90
30648;DHT22;17683;53.360;9.736;2024-03-23T01:44:27;6.80;99.90
30648;DHT22;17683;53.360;9.736;2024-03-23T01:46:53;6.80;99.90
30648;DHT22;17683;53.360;9.736;2024-03-23T01:49:18;6.80;99.90
30648;DHT22;17683;53.360;9.736;2024-03-23T01:51:44;6.80;99.90
30648;DHT22;17683;53.360;9.736;2024-03-23T01:54:10;6.70;99.90
30648;DHT22;17683;53.360;9.736;2024-03-23T01:56:36;6.70;99.90
30648;DHT22;17683;53.360;9.736;2024-03-23T01:59:03;6.70;99.90
30648;DHT22;17683;53.360;9.736;2024-03-23T02:01:29;6.70;99.90
30648;DHT22;17683;53.360;9.736;2024-03-23T02:03:55;6.70;99.90
30648;DHT22;17683;53.360;9.736;2024-03-23T02:06:21;6.60;99.90
30648;DHT22;17683;53.360;9.736;2024-03-23T02:08:48;6.60;99.90
30648;DHT22;17683;53.360;9.736;2024-03-23T02:11:14;6.60;99.90
30648;DHT22;17683;53.360;9.736;2024-03-23T02:13:39;6.60;99.90
30648;DHT22;17683;53.360;9.736;2024-03-23T02:16:05;6.50;99.90
30648;DHT22;17683;53.360;9.736;2024-03-23T02:18:32;6.50;99.90
30648;DHT22;17683;53.360;9.736;2024-03-23T02:20:58;6.50;99.90
30648;DHT22;17683;53.360;9.736;2024-03-23T02:23:23;6.50;99.90
30648;DHT22;17683;53.360;9.736;2024-03-23T02:25:50;6.40;99.90
30648;DHT22;17683;53.360;9.736;2024-03-23T02:28:16;6.50;99.90
30648;DHT22;17683;53.360;9.736;2024-03-23T02:30:42;6.40;99.90
30648;DHT22;17683;53.360;9.736;2024-03-23T02:33:08;6.40;99.90
30648;DHT22;17683;53.360;9.736;2024-03-23T02:35:34;6.40;99.90
30648;DHT22;17683;53.360;9.736;2024-03-23T02:38:00;6.40;99.90
30648;DHT22;17683;53.360;9.736;2024-03-23T02:40:26;6.40;99.90
30648;DHT22;17683;53.360;9.736;2024-03-23T02:42:52;6.40;99.90
30648;DHT22;17683;53.360;9.736;2024-03-23T02:45:18;6.30;99.90
30648;DHT22;17683;53.360;9.736;2024-03-23T02:47:44;6.30;99.90
30648;DHT22;17683;53.360;9.736;2024-03-23T02:50:09;6.30;99.90
30648;DHT22;17683;53.360;9.736;2024-03-23T02:52:36;6.30;99.90
30648;DHT22;17683;53.360;9.736;2024-03-23T02:55:02;6.30;99.90
30648;DHT22;17683;53.360;9.736;2024-03-23T02:57:28;6.30;99.90
30648;DHT22;17683;53.360;9.736;2024-03-23T02:59:54;6.30;99.90
30648;DHT22;17683;53.360;9.736;2024-03-23T03:02:20;6.30;99.90
30648;DHT22;17683;53.360;9.736;2024-03-23T03:04:47;6.30;99.90
30648;DHT22;17683;53.360;9.736;2024-03-23T03:07:13;6.20;99.90
30648;DHT22;17683;53.360;9.736;2024-03-23T03:09:39;6.20;99.90
30648;DHT22;17683;53.360;9.736;2024-03-23T03:12:07;6.20;99.90
30648;DHT22;17683;53.360;9.736;2024-03-23T03:14:34;6.20;99.90
30648;DHT22;17683;53.360;9.736;2024-03-23T03:17:00;6.10;99.90
30648;DHT22;17683;53.360;9.736;2024-03-23T03:19:26;6.20;99.90
30648;DHT22;17683;53.360;9.736;2024-03-23T03:21:51;6.10;99.90
30648;DHT22;17683;53.360;9.736;2024-03-23T03:24:17;6.10;99.90
30648;DHT22;17683;53.360;9.736;2024-03-23T03:26:43;6.10;99.90
30648;DHT22;17683;53.360;9.736;2024-03-23T03:29:09;6.10;99.90
30648;DHT22;17683;53.360;9.736;2024-03-23T03:31:35;6.00;99.90
30648;DHT22;17683;53.360;9.736;2024-03-23T03:34:01;6.00;99.90
30648;DHT22;17683;53.360;9.736;2024-03-23T03:36:28;6.00;99.90
30648;DHT22;17683;53.360;9.736;2024-03-23T03:38:53;6.00;99.90
30648;DHT22;17683;53.360;9.736;2024-03-23T03:41:19;6.00;99.90
30648;DHT22;17683;53.360;9.736;2024-03-23T03:43:45;6.00;99.90
30648;DHT22;17683;53.360;9.736;2024-03-23T03:46:11;6.00;99.90
30648;DHT22;17683;53.360;9.736;2024-03-23T03:48:37;6.00;99.90
30648;DHT22;17683;53.360;9.736;2024-03-23T03:51:03;6.00;99.90
30648;DHT22;17683;53.360;9.736;2024-03-23T03:53:29;5.90;99.90
30648;DHT22;17683;53.360;9.736;2024-03-23T03:55:55;5.90;99.90
30648;DHT22;17683;53.360;9.736;2024-03-23T03:58:21;5.90;99.90
30648;DHT22;17683;53.360;9.736;2024-03-23T04:00:47;5.90;99.90
30648;DHT22;17683;53.360;9.736;2024-03-23T04:03:12;5.90;99.90
30648;DHT22;17683;53.360;9.736;2024-03-23T04:05:38;5.90;99.90
30648;DHT22;17683;53.360;9.736;2024-03-23T04:08:05;5.90;99.90
30648;DHT22;17683;53.360;9.736;2024-03-23T04:10:31;5.90;99.90
30648;DHT22;17683;53.360;9.736;2024-03-23T04:12:57;5.90;99.90
30648;DHT22;17683;53.360;9.736;2024-03-23T04:15:22;5.90;99.90
30648;DHT22;17683;53.360;9.736;2024-03-23T04:17:48;5.80;99.90
30648;DHT22;17683;53.360;9.736;2024-03-23T04:20:14;5.80;99.90
30648;DHT22;17683;53.360;9.736;2024-03-23T04:22:42;5.80;99.90
30648;DHT22;17683;53.360;9.736;2024-03-23T04:25:08;5.80;99.90
30648;DHT22;17683;53.360;9.736;2024-03-23T04:27:39;5.80;99.90
30648;DHT22;17683;53.360;9.736;2024-03-23T04:30:05;5.80;99.90
30648;DHT22;17683;53.360;9.736;2024-03-23T04:32:36;5.80;99.90
30648;DHT22;17683;53.360;9.736;2024-03-23T04:35:02;5.80;99.90
30648;DHT22;17683;53.360;9.736;2024-03-23T04:37:32;5.80;99.90
30648;DHT22;17683;53.360;9.736;2024-03-23T04:39:58;5.70;99.90
30648;DHT22;17683;53.360;9.736;2024-03-23T04:42:24;5.70;99.90
30648;DHT22;17683;53.360;9.736;2024-03-23T04:44:50;5.70;99.90
30648;DHT22;17683;53.360;9.736;2024-03-23T04:47:16;5.70;99.90
30648;DHT22;17683;53.360;9.736;2024-03-23T04:49:42;5.70;99.90
30648;DHT22;17683;53.360;9.736;2024-03-23T04:52:07;5.60;99.90
30648;DHT22;17683;53.360;9.736;2024-03-23T04:54:33;5.60;99.90
30648;DHT22;17683;53.360;9.736;2024-03-23T04:57:00;5.60;99.90
30648;DHT22;17683;53.360;9.736;2024-03-23T04:59:26;5.60;99.90
30648;DHT22;17683;53.360;9.736;2024-03-23T05:01:52;5.60;99.90
30648;DHT22;17683;53.360;9.736;2024-03-23T05:04:17;5.60;99.90
30648;DHT22;17683;53.360;9.736;2024-03-23T05:06:43;5.60;99.90
30648;DHT22;17683;53.360;9.736;2024-03-23T05:09:09;5.60;99.90
30648;DHT22;17683;53.360;9.736;2024-03-23T05:11:38;5.60;99.90
30648;DHT22;17683;53.360;9.736;2024-03-23T05:14:04;5.60;99.90
30648;DHT22;17683;53.360;9.736;2024-03-23T05:16:30;5.60;99.90
30648;DHT22;17683;53.360;9.736;2024-03-23T05:18:55;5.60;99.90
30648;DHT22;17683;53.360;9.736;2024-03-23T05:21:21;5.60;99.90
30648;DHT22;17683;53.360;9.736;2024-03-23T05:23:47;5.50;99.90
30648;DHT22;17683;53.360;9.736;2024-03-23T05:26:13;5.60;99.90
30648;DHT22;17683;53.360;9.736;2024-03-23T05:28:39;5.60;99.90
30648;DHT22;17683;53.360;9.736;2024-03-23T05:31:05;5.60;99.90
30648;DHT22;17683;53.360;9.736;2024-03-23T05:33:31;5.60;99.90
30648;DHT22;17683;53.360;9.736;2024-03-23T05:35:58;5.60;99.90
30648;DHT22;17683;53.360;9.736;2024-03-23T05:38:24;5.60;99.90
30648;DHT22;17683;53.360;9.736;2024-03-23T05:40:54;5.50;99.90
30648;DHT22;17683;53.360;9.736;2024-03-23T05:43:20;5.60;99.90
30648;DHT22;17683;53.360;9.736;2024-03-23T05:45:52;5.60;99.90
30648;DHT22;17683;53.360;9.736;2024-03-23T05:48:18;5.60;99.90
30648;DHT22;17683;53.360;9.736;2024-03-23T05:50:44;5.60;99.90
30648;DHT22;17683;53.360;9.736;2024-03-23T05:53:09;5.60;99.90
30648;DHT22;17683;53.360;9.736;2024-03-23T05:55:35;5.60;99.90
30648;DHT22;17683;53.360;9.736;2024-03-23T05:58:01;5.70;99.90
30648;DHT22;17683;53.360;9.736;2024-03-23T06:00:26;5.70;99.90
30648;DHT22;17683;53.360;9.736;2024-03-23T06:02:52;5.70;99.90
30648;DHT22;17683;53.360;9.736;2024-03-23T06:05:18;5.70;99.90
30648;DHT22;17683;53.360;9.736;2024-03-23T06:07:43;5.70;99.90
30648;DHT22;17683;53.360;9.736;2024-03-23T06:10:09;5.70;99.90
30648;DHT22;17683;53.360;9.736;2024-03-23T06:12:35;5.80;99.90
30648;DHT22;17683;53.360;9.736;2024-03-23T06:15:00;5.80;99.90
30648;DHT22;17683;53.360;9.736;2024-03-23T06:17:27;5.80;99.90
30648;DHT22;17683;53.360;9.736;2024-03-23T06:19:53;5.80;99.90
30648;DHT22;17683;53.360;9.736;2024-03-23T06:22:18;5.80;99.90
30648;DHT22;17683;53.360;9.736;2024-03-23T06:24:44;5.80;99.90
30648;DHT22;17683;53.360;9.736;2024-03-23T06:27:10;5.90;99.90
30648;DHT22;17683;53.360;9.736;2024-03-23T06:29:35;5.90;99.90
30648;DHT22;17683;53.360;9.736;2024-03-23T06:32:02;5.90;99.90
30648;DHT22;17683;53.360;9.736;2024-03-23T06:34:29;6.00;99.90
30648;DHT22;17683;53.360;9.736;2024-03-23T06:36:54;6.00;99.90
30648;DHT22;17683;53.360;9.736;2024-03-23T06:39:20;6.10;99.90
30648;DHT22;17683;53.360;9.736;2024-03-23T06:41:52;6.20;99.90
30648;DHT22;17683;53.360;9.736;2024-03-23T06:44:19;6.20;99.90
30648;DHT22;17683;53.360;9.736;2024-03-23T06:46:45;6.30;99.90
30648;DHT22;17683;53.360;9.736;2024-03-23T06:49:11;6.30;99.90
30648;DHT22;17683;53.360;9.736;2024-03-23T06:51:37;6.40;99.90
30648;DHT22;17683;53.360;9.736;2024-03-23T06:54:06;6.40;99.90
30648;DHT22;17683;53.360;9.736;2024-03-23T06:56:32;6.40;99.90
30648;DHT22;17683;53.360;9.736;2024-03-23T06:58:58;6.40;99.90
30648;DHT22;17683;53.360;9.736;2024-03-23T07:01:24;6.40;99.90
30648;DHT22;17683;53.360;9.736;2024-03-23T07:03:50;6.40;99.90
30648;DHT22;17683;53.360;9.736;2024-03-23T07:06:15;6.40;99.90
30648;DHT22;17683;53.360;9.736;2024-03-23T07:08:41;6.40;99.90
30648;DHT22;17683;53.360;9.736;2024-03-23T07:11:07;6.40;99.90
30648;DHT22;17683;53.360;9.736;2024-03-23T07:13:33;6.50;99.90
30648;DHT22;17683;53.360;9.736;2024-03-23T07:15:58;6.60;99.90
30648;DHT22;17683;53.360;9.736;2024-03-23T07:18:25;6.60;99.90
30648;DHT22;17683;53.360;9.736;2024-03-23T07:20:55;6.60;99.90
30648;DHT22;17683;53.360;9.736;2024-03-23T07:23:22;6.70;99.90
30648;DHT22;17683;53.360;9.736;2024-03-23T07:26:05;6.80;99.90
30648;DHT22;17683;53.360;9.736;2024-03-23T07:28:34;6.80;99.90
30648;DHT22;17683;53.360;9.736;2024-03-23T07:31:05;6.90;99.90
30648;DHT22;17683;53.360;9.736;2024-03-23T07:33:32;7.00;99.90
30648;DHT22;17683;53.360;9.736;2024-03-23T07:35:58;7.00;99.90
30648;DHT22;17683;53.360;9.736;2024-03-23T07:38:26;7.10;99.90
30648;DHT22;17683;53.360;9.736;2024-03-23T07:40:55;7.20;99.90
30648;DHT22;17683;53.360;9.736;2024-03-23T07:43:28;7.30;99.90
30648;DHT22;17683;53.360;9.736;2024-03-23T07:45:54;7.40;99.90
30648;DHT22;17683;53.360;9.736;2024-03-23T07:48:21;7.50;99.90
30648;DHT22;17683;53.360;9.736;2024-03-23T07:51:05;7.60;99.90
30648;DHT22;17683;53.360;9.736;2024-03-23T07:53:35;7.70;99.90
30648;DHT22;17683;53.360;9.736;2024-03-23T07:56:02;7.80;99.90
30648;DHT22;17683;53.360;9.736;2024-03-23T07:58:28;7.90;99.90
30648;DHT22;17683;53.360;9.736;2024-03-23T08:00:55;7.90;99.90
30648;DHT22;17683;53.360;9.736;2024-03-23T08:03:20;8.00;99.90
30648;DHT22;17683;53.360;9.736;2024-03-23T08:05:47;8.10;99.90
30648;DHT22;17683;53.360;9.736;2024-03-23T08:08:13;8.20;99.90
30648;DHT22;17683;53.360;9.736;2024-03-23T08:10:51;8.30;99.90
30648;DHT22;17683;53.360;9.736;2024-03-23T08:13:18;8.40;99.90
30648;DHT22;17683;53.360;9.736;2024-03-23T08:15:44;8.40;99.90
30648;DHT22;17683;53.360;9.736;2024-03-23T08:18:12;8.40;99.90
30648;DHT22;17683;53.360;9.736;2024-03-23T08:20:38;8.40;99.90
30648;DHT22;17683;53.360;9.736;2024-03-23T08:23:05;8.50;99.90
30648;DHT22;17683;53.360;9.736;2024-03-23T08:25:31;8.60;99.90
30648;DHT22;17683;53.360;9.736;2024-03-23T08:27:58;8.70;99.90
30648;DHT22;17683;53.360;9.736;2024-03-23T08:30:24;8.70;99.90
30648;DHT22;17683;53.360;9.736;2024-03-23T08:32:49;8.80;99.90
30648;DHT22;17683;53.360;9.736;2024-03-23T08:35:15;8.70;99.90
30648;DHT22;17683;53.360;9.736;2024-03-23T08:37:41;8.70;99.90
30648;DHT22;17683;53.360;9.736;2024-03-23T08:40:08;8.80;99.90
30648;DHT22;17683;53.360;9.736;2024-03-23T08:42:34;8.80;99.90
30648;DHT22;17683;53.360;9.736;2024-03-23T08:45:00;8.80;99.90
30648;DHT22;17683;53.360;9.736;2024-03-23T08:47:26;8.90;99.90
30648;DHT22;17683;53.360;9.736;2024-03-23T08:49:51;8.90;99.90
30648;DHT22;17683;53.360;9.736;2024-03-23T08:52:17;8.90;99.90
30648;DHT22;17683;53.360;9.736;2024-03-23T08:54:43;8.90;99.90
30648;DHT22;17683;53.360;9.736;2024-03-23T08:57:09;8.90;99.90
30648;DHT22;17683;53.360;9.736;2024-03-23T08:59:35;8.90;99.90
30648;DHT22;17683;53.360;9.736;2024-03-23T09:02:01;9.00;99.90
30648;DHT22;17683;53.360;9.736;2024-03-23T09:04:26;9.20;99.90
30648;DHT22;17683;53.360;9.736;2024-03-23T09:06:52;9.30;99.90
30648;DHT22;17683;53.360;9.736;2024-03-23T09:09:18;9.40;99.90
30648;DHT22;17683;53.360;9.736;2024-03-23T09:11:45;9.40;99.90
30648;DHT22;17683;53.360;9.736;2024-03-23T09:14:11;9.30;99.90
30648;DHT22;17683;53.360;9.736;2024-03-23T09:16:37;9.30;99.90
30648;DHT22;17683;53.360;9.736;2024-03-23T09:19:02;9.30;99.90
30648;DHT22;17683;53.360;9.736;2024-03-23T09:21:28;9.20;99.90
30648;DHT22;17683;53.360;9.736;2024-03-23T09:23:54;9.10;99.90
30648;DHT22;17683;53.360;9.736;2024-03-23T09:26:20;9.00;99.90
30648;DHT22;17683;53.360;9.736;2024-03-23T09:28:48;9.10;99.90
30648;DHT22;17683;53.360;9.736;2024-03-23T09:31:14;9.10;99.90
30648;DHT22;17683;53.360;9.736;2024-03-23T09:33:41;9.30;99.90
30648;DHT22;17683;53.360;9.736;2024-03-23T09:36:08;9.50;99.90
30648;DHT22;17683;53.360;9.736;2024-03-23T09:38:34;9.60;99.90
30648;DHT22;17683;53.360;9.736;2024-03-23T09:41:00;9.80;99.90
30648;DHT22;17683;53.360;9.736;2024-03-23T09:43:26;9.90;99.90
30648;DHT22;17683;53.360;9.736;2024-03-23T09:45:52;10.10;99.90
30648;DHT22;17683;53.360;9.736;2024-03-23T09:48:19;10.30;99.90
30648;DHT22;17683;53.360;9.736;2024-03-23T09:50:45;10.40;99.90
30648;DHT22;17683;53.360;9.736;2024-03-23T09:53:14;10.30;99.90
30648;DHT22;17683;53.360;9.736;2024-03-23T09:55:41;10.20;99.90
30648;DHT22;17683;53.360;9.736;2024-03-23T09:58:08;10.20;99.90
30648;DHT22;17683;53.360;9.736;2024-03-23T10:00:37;10.10;99.90
30648;DHT22;17683;53.360;9.736;2024-03-23T10:03:04;10.00;99.90
30648;DHT22;17683;53.360;9.736;2024-03-23T10:05:32;10.00;99.90
30648;DHT22;17683;53.360;9.736;2024-03-23T10:10:40;9.80;99.90
30648;DHT22;17683;53.360;9.736;2024-03-23T10:13:05;9.80;99.90
30648;DHT22;17683;53.360;9.736;2024-03-23T10:15:34;10.00;99.90
30648;DHT22;17683;53.360;9.736;2024-03-23T10:18:20;10.10;99.90
30648;DHT22;17683;53.360;9.736;2024-03-23T10:21:14;10.20;99.90
30648;DHT22;17683;53.360;9.736;2024-03-23T10:23:41;10.40;99.90
30648;DHT22;17683;53.360;9.736;2024-03-23T10:26:22;10.50;99.90
30648;DHT22;17683;53.360;9.736;2024-03-23T10:31:34;11.10;99.90
30648;DHT22;17683;53.360;9.736;2024-03-23T10:34:05;11.40;99.90
30648;DHT22;17683;53.360;9.736;2024-03-23T10:36:31;11.50;99.90
30648;DHT22;17683;53.360;9.736;2024-03-23T10:38:58;11.60;99.90
30648;DHT22;17683;53.360;9.736;2024-03-23T10:41:28;11.60;99.90
30648;DHT22;17683;53.360;9.736;2024-03-23T10:43:55;11.50;99.90
30648;DHT22;17683;53.360;9.736;2024-03-23T10:46:23;11.40;99.90
30648;DHT22;17683;53.360;9.736;2024-03-23T10:48:49;11.40;99.90
30648;DHT22;17683;53.360;9.736;2024-03-23T10:51:15;11.50;99.90
30648;DHT22;17683;53.360;9.736;2024-03-23T10:53:41;11.50;99.90
30648;DHT22;17683;53.360;9.736;2024-03-23T10:56:08;11.50;99.90
30648;DHT22;17683;53.360;9.736;2024-03-23T10:58:38;11.40;99.90
30648;DHT22;17683;53.360;9.736;2024-03-23T11:01:04;11.20;99.90
30648;DHT22;17683;53.360;9.736;2024-03-23T11:03:33;11.10;99.90
30648;DHT22;17683;53.360;9.736;2024-03-23T11:06:00;11.00;99.90
30648;DHT22;17683;53.360;9.736;2024-03-23T11:08:40;10.80;99.90
30648;DHT22;17683;53.360;9.736;2024-03-23T11:11:24;10.60;99.90
30648;DHT22;17683;53.360;9.736;2024-03-23T11:13:51;10.50;99.90
30648;DHT22;17683;53.360;9.736;2024-03-23T11:18:43;10.70;99.90
30648;DHT22;17683;53.360;9.736;2024-03-23T11:21:10;10.80;99.90
30648;DHT22;17683;53.360;9.736;2024-03-23T11:23:36;11.00;99.90
30648;DHT22;17683;53.360;9.736;2024-03-23T11:26:02;11.10;99.90
30648;DHT22;17683;53.360;9.736;2024-03-23T11:28:30;11.10;99.90
30648;DHT22;17683;53.360;9.736;2024-03-23T11:30:56;11.00;99.90
30648;DHT22;17683;53.360;9.736;2024-03-23T11:33:22;10.90;99.90
30648;DHT22;17683;53.360;9.736;2024-03-23T11:35:49;10.90;99.90
30648;DHT22;17683;53.360;9.736;2024-03-23T11:38:18;10.80;99.90
30648;DHT22;17683;53.360;9.736;2024-03-23T11:40:48;10.90;99.90
30648;DHT22;17683;53.360;9.736;2024-03-23T11:43:16;10.90;99.90
30648;DHT22;17683;53.360;9.736;2024-03-23T11:45:49;11.10;99.90
30648;DHT22;17683;53.360;9.736;2024-03-23T11:48:23;11.10;99.90
30648;DHT22;17683;53.360;9.736;2024-03-23T11:50:54;11.20;99.90
30648;DHT22;17683;53.360;9.736;2024-03-23T11:53:21;11.20;99.90
30648;DHT22;17683;53.360;9.736;2024-03-23T11:55:50;11.10;99.90
30648;DHT22;17683;53.360;9.736;2024-03-23T11:58:18;11.20;99.90
30648;DHT22;17683;53.360;9.736;2024-03-23T12:00:58;11.00;99.90
30648;DHT22;17683;53.360;9.736;2024-03-23T12:03:25;11.00;99.90
30648;DHT22;17683;53.360;9.736;2024-03-23T12:05:53;11.00;99.90
30648;DHT22;17683;53.360;9.736;2024-03-23T12:08:29;10.90;99.90
30648;DHT22;17683;53.360;9.736;2024-03-23T12:11:12;10.80;99.90
30648;DHT22;17683;53.360;9.736;2024-03-23T12:13:39;10.60;99.90
30648;DHT22;17683;53.360;9.736;2024-03-23T12:16:18;10.50;99.90
30648;DHT22;17683;53.360;9.736;2024-03-23T12:18:47;10.50;99.90
30648;DHT22;17683;53.360;9.736;2024-03-23T12:21:13;10.60;99.90
30648;DHT22;17683;53.360;9.736;2024-03-23T12:23:39;10.50;99.90
30648;DHT22;17683;53.360;9.736;2024-03-23T12:26:06;10.50;99.90
30648;DHT22;17683;53.360;9.736;2024-03-23T12:28:32;10.50;99.90
30648;DHT22;17683;53.360;9.736;2024-03-23T12:30:58;10.50;99.90
30648;DHT22;17683;53.360;9.736;2024-03-23T12:33:24;10.40;99.90
30648;DHT22;17683;53.360;9.736;2024-03-23T12:35:50;10.40;99.90
30648;DHT22;17683;53.360;9.736;2024-03-23T12:38:16;10.30;99.90
30648;DHT22;17683;53.360;9.736;2024-03-23T12:40:47;10.20;99.90
30648;DHT22;17683;53.360;9.736;2024-03-23T12:43:14;9.80;99.90
30648;DHT22;17683;53.360;9.736;2024-03-23T12:45:40;9.60;99.90
30648;DHT22;17683;53.360;9.736;2024-03-23T12:48:06;9.50;99.90
30648;DHT22;17683;53.360;9.736;2024-03-23T12:50:32;9.40;99.90
30648;DHT22;17683;53.360;9.736;2024-03-23T12:52:58;9.50;99.90
30648;DHT22;17683;53.360;9.736;2024-03-23T12:55:24;9.60;99.90
30648;DHT22;17683;53.360;9.736;2024-03-23T12:57:50;9.80;99.90
30648;DHT22;17683;53.360;9.736;2024-03-23T13:00:15;9.90;99.90
30648;DHT22;17683;53.360;9.736;2024-03-23T13:02:42;10.10;99.90
30648;DHT22;17683;53.360;9.736;2024-03-23T13:05:08;10.10;99.90
30648;DHT22;17683;53.360;9.736;2024-03-23T13:07:34;10.10;99.90
30648;DHT22;17683;53.360;9.736;2024-03-23T13:10:01;10.00;99.90
30648;DHT22;17683;53.360;9.736;2024-03-23T13:12:27;9.90;99.90
30648;DHT22;17683;53.360;9.736;2024-03-23T13:14:53;9.70;99.90
30648;DHT22;17683;53.360;9.736;2024-03-23T13:17:19;9.60;99.90
30648;DHT22;17683;53.360;9.736;2024-03-23T13:19:45;9.40;99.90
30648;DHT22;17683;53.360;9.736;2024-03-23T13:22:10;9.20;99.90
30648;DHT22;17683;53.360;9.736;2024-03-23T13:24:37;9.10;99.90
30648;DHT22;17683;53.360;9.736;2024-03-23T13:27:03;8.90;99.90
30648;DHT22;17683;53.360;9.736;2024-03-23T13:29:31;8.70;99.90
30648;DHT22;17683;53.360;9.736;2024-03-23T13:31:56;8.60;99.90
30648;DHT22;17683;53.360;9.736;2024-03-23T13:34:22;8.60;99.90
30648;DHT22;17683;53.360;9.736;2024-03-23T13:36:48;8.50;99.90
30648;DHT22;17683;53.360;9.736;2024-03-23T13:39:14;8.30;99.90
30648;DHT22;17683;53.360;9.736;2024-03-23T13:44:08;8.30;99.90
30648;DHT22;17683;53.360;9.736;2024-03-23T13:46:38;8.40;99.90
30648;DHT22;17683;53.360;9.736;2024-03-23T13:49:05;8.50;99.90
30648;DHT22;17683;53.360;9.736;2024-03-23T13:51:31;8.70;99.90
30648;DHT22;17683;53.360;9.736;2024-03-23T13:53:58;8.80;99.90
30648;DHT22;17683;53.360;9.736;2024-03-23T13:56:28;8.90;99.90
30648;DHT22;17683;53.360;9.736;2024-03-23T13:58:58;9.00;99.90
30648;DHT22;17683;53.360;9.736;2024-03-23T14:01:23;9.00;99.90
30648;DHT22;17683;53.360;9.736;2024-03-23T14:03:50;9.10;99.90
30648;DHT22;17683;53.360;9.736;2024-03-23T14:06:15;9.30;99.90
30648;DHT22;17683;53.360;9.736;2024-03-23T14:08:41;9.40;99.90
30648;DHT22;17683;53.360;9.736;2024-03-23T14:11:09;9.40;99.90
30648;DHT22;17683;53.360;9.736;2024-03-23T14:13:36;9.50;99.90
30648;DHT22;17683;53.360;9.736;2024-03-23T14:16:02;9.50;99.90
30648;DHT22;17683;53.360;9.736;2024-03-23T14:18:28;9.60;99.90
30648;DHT22;17683;53.360;9.736;2024-03-23T14:20:59;9.70;99.90
30648;DHT22;17683;53.360;9.736;2024-03-23T14:23:30;9.70;99.90
30648;DHT22;17683;53.360;9.736;2024-03-23T14:25:58;9.60;99.90
30648;DHT22;17683;53.360;9.736;2024-03-23T14:28:24;9.60;99.90
30648;DHT22;17683;53.360;9.736;2024-03-23T14:30:51;9.60;99.90
30648;DHT22;17683;53.360;9.736;2024-03-23T14:33:17;9.60;99.90
30648;DHT22;17683;53.360;9.736;2024-03-23T14:35:56;9.50;99.90
30648;DHT22;17683;53.360;9.736;2024-03-23T14:38:25;9.50;99.90
30648;DHT22;17683;53.360;9.736;2024-03-23T14:40:51;9.50;99.90
30648;DHT22;17683;53.360;9.736;2024-03-23T14:43:18;9.50;99.90
30648;DHT22;17683;53.360;9.736;2024-03-23T14:46:13;9.60;99.90
30648;DHT22;17683;53.360;9.736;2024-03-23T14:48:40;9.50;99.90
30648;DHT22;17683;53.360;9.736;2024-03-23T14:51:06;9.50;99.90
30648;DHT22;17683;53.360;9.736;2024-03-23T14:53:35;9.40;99.90
30648;DHT22;17683;53.360;9.736;2024-03-23T14:56:02;9.40;99.90
30648;DHT22;17683;53.360;9.736;2024-03-23T14:58:28;9.40;99.90
30648;DHT22;17683;53.360;9.736;2024-03-23T15:01:08;9.40;99.90
30648;DHT22;17683;53.360;9.736;2024-03-23T15:03:37;9.40;99.90
30648;DHT22;17683;53.360;9.736;2024-03-23T15:06:04;9.40;99.90
30648;DHT22;17683;53.360;9.736;2024-03-23T15:08:30;9.40;99.90
30648;DHT22;17683;53.360;9.736;2024-03-23T15:11:00;9.40;99.90
30648;DHT22;17683;53.360;9.736;2024-03-23T15:13:31;9.40;99.90
30648;DHT22;17683;53.360;9.736;2024-03-23T15:15:57;9.50;99.90
30648;DHT22;17683;53.360;9.736;2024-03-23T15:18:23;9.50;99.90
30648;DHT22;17683;53.360;9.736;2024-03-23T15:20:59;9.50;99.90
30648;DHT22;17683;53.360;9.736;2024-03-23T15:23:29;9.40;99.90
30648;DHT22;17683;53.360;9.736;2024-03-23T15:25:56;9.30;99.90
30648;DHT22;17683;53.360;9.736;2024-03-23T15:28:23;9.30;99.90
30648;DHT22;17683;53.360;9.736;2024-03-23T15:30:49;9.30;99.90
30648;DHT22;17683;53.360;9.736;2024-03-23T15:33:15;9.20;99.90
30648;DHT22;17683;53.360;9.736;2024-03-23T15:35:41;9.20;99.90
30648;DHT22;17683;53.360;9.736;2024-03-23T15:38:06;9.10;99.90
30648;DHT22;17683;53.360;9.736;2024-03-23T15:40:32;9.00;99.90
30648;DHT22;17683;53.360;9.736;2024-03-23T15:42:58;9.00;99.90
30648;DHT22;17683;53.360;9.736;2024-03-23T15:45:23;8.90;99.90
30648;DHT22;17683;53.360;9.736;2024-03-23T15:47:49;8.90;99.90
30648;DHT22;17683;53.360;9.736;2024-03-23T15:50:15;8.80;99.90
30648;DHT22;17683;53.360;9.736;2024-03-23T15:52:41;8.80;99.90
30648;DHT22;17683;53.360;9.736;2024-03-23T15:55:07;8.60;99.90
30648;DHT22;17683;53.360;9.736;2024-03-23T15:57:34;8.20;99.90
30648;DHT22;17683;53.360;9.736;2024-03-23T16:00:00;7.90;99.90
30648;DHT22;17683;53.360;9.736;2024-03-23T16:02:26;7.50;99.90
30648;DHT22;17683;53.360;9.736;2024-03-23T16:04:53;7.30;99.90
30648;DHT22;17683;53.360;9.736;2024-03-23T16:07:19;7.20;99.90
30648;DHT22;17683;53.360;9.736;2024-03-23T16:09:45;7.10;99.90
30648;DHT22;17683;53.360;9.736;2024-03-23T16:12:10;7.10;99.90
30648;DHT22;17683;53.360;9.736;2024-03-23T16:14:36;7.10;99.90
30648;DHT22;17683;53.360;9.736;2024-03-23T16:17:02;7.10;99.90
30648;DHT22;17683;53.360;9.736;2024-03-23T16:19:28;7.10;99.90
30648;DHT22;17683;53.360;9.736;2024-03-23T16:21:54;7.30;99.90
30648;DHT22;17683;53.360;9.736;2024-03-23T16:24:21;7.40;99.90
30648;DHT22;17683;53.360;9.736;2024-03-23T16:26:47;7.40;99.90
30648;DHT22;17683;53.360;9.736;2024-03-23T16:29:14;7.50;99.90
30648;DHT22;17683;53.360;9.736;2024-03-23T16:31:40;7.50;99.90
30648;DHT22;17683;53.360;9.736;2024-03-23T16:34:06;7.50;99.90
30648;DHT22;17683;53.360;9.736;2024-03-23T16:36:32;7.40;99.90
30648;DHT22;17683;53.360;9.736;2024-03-23T16:38:57;7.40;99.90
30648;DHT22;17683;53.360;9.736;2024-03-23T16:41:24;7.30;99.90
30648;DHT22;17683;53.360;9.736;2024-03-23T16:43:49;7.30;99.90